createdAt,value
2022-09-02T00:00:08.368Z,56.02
2022-09-02T00:03:12.201Z,56.43
2022-09-02T00:06:17.552Z,54.61
2022-09-02T00:09:23.495Z,54.73
2022-09-02T00:12:26.792Z,55.55
2022-09-02T00:15:29.733Z,55.03
2022-09-02T00:18:33.385Z,56.19
2022-09-02T00:21:36.455Z,53.38
2022-09-02T00:24:40.238Z,53.38
2022-09-02T00:27:42.891Z,54.41
2022-09-02T00:30:46.568Z,53.59
2022-09-02T00:33:51.491Z,52.86
2022-09-02T00:36:54.564Z,54.52
2022-09-02T00:39:58.225Z,53.47
2022-09-02T00:43:01.306Z,53.52
2022-09-02T00:46:04.418Z,53.32
2022-09-02T00:49:25.135Z,53.28
2022-09-02T00:52:35.809Z,53.26
2022-09-02T00:55:46.529Z,53.53
2022-09-02T00:58:52.168Z,53.48
2022-09-02T01:01:55.171Z,53.74
2022-09-02T01:05:03.831Z,54.41
2022-09-02T01:08:07.412Z,54.15
2022-09-02T01:11:11.239Z,53.68
2022-09-02T01:14:16.155Z,54.12
2022-09-02T01:17:19.485Z,53.23
2022-09-02T01:20:26.796Z,56.06
2022-09-02T01:23:34.675Z,54.54
2022-09-02T01:26:38.143Z,53.65
2022-09-02T01:29:40.831Z,54.07
2022-09-02T01:32:44.131Z,55.96
2022-09-02T01:35:47.278Z,53.86
2022-09-02T01:38:51.027Z,54.25
2022-09-02T01:41:54.084Z,53.86
2022-09-02T01:44:57.048Z,54.22
2022-09-02T01:47:59.951Z,54.54
2022-09-02T01:51:04.643Z,55.02
2022-09-02T01:54:07.626Z,54.97
2022-09-02T01:57:11.777Z,53.98
2022-09-02T02:00:16.457Z,53.99
2022-09-02T02:03:20.668Z,54.94
2022-09-02T02:06:23.728Z,54.41
2022-09-02T02:09:28.503Z,54.72
2022-09-02T02:12:31.626Z,55.65
2022-09-02T02:15:39.352Z,55.49
2022-09-02T02:18:42.561Z,55.77
2022-09-02T02:21:45.288Z,56.57
2022-09-02T02:24:48.292Z,56.16
2022-09-02T02:27:51.434Z,58.50
2022-09-02T02:30:56.932Z,57.96
2022-09-02T02:33:59.950Z,58.10
2022-09-02T02:37:03.167Z,56.92
2022-09-02T02:40:07.448Z,57.22
2022-09-02T02:43:10.651Z,57.63
2022-09-02T02:46:13.977Z,57.06
2022-09-02T02:49:17.113Z,58.03
2022-09-02T02:52:19.968Z,58.87
2022-09-02T02:55:24.629Z,59.34
2022-09-02T02:58:27.996Z,60.51
2022-09-02T03:01:32.901Z,61.25
2022-09-02T03:04:36.153Z,62.15
2022-09-02T03:07:40.328Z,62.15
2022-09-02T03:10:44.241Z,64.02
2022-09-02T03:13:47.405Z,64.01
2022-09-02T03:16:50.266Z,65.24
2022-09-02T03:19:54.197Z,65.62
2022-09-02T03:22:59.185Z,65.83
2022-09-02T03:26:02.604Z,67.57
2022-09-02T03:29:05.635Z,67.62
2022-09-02T03:32:08.840Z,68.35
2022-09-02T03:35:17.344Z,69.25
2022-09-02T03:38:20.683Z,68.24
2022-09-02T03:41:23.328Z,72.98
2022-09-02T03:44:26.398Z,72.21
2022-09-02T03:47:30.113Z,72.47
2022-09-02T03:50:37.860Z,73.10
2022-09-02T03:53:40.566Z,74.18
2022-09-02T03:56:44.416Z,74.90
2022-09-02T03:59:49.275Z,75.36
2022-09-02T04:02:55.382Z,76.16
2022-09-02T04:05:58.887Z,76.14
2022-09-02T04:09:02.906Z,76.93
2022-09-02T04:12:07.228Z,75.92
2022-09-02T04:15:12.315Z,77.10
2022-09-02T04:18:17.949Z,77.37
2022-09-02T04:21:20.669Z,77.85
2022-09-02T04:24:24.391Z,76.67
2022-09-02T04:27:27.722Z,77.70
2022-09-02T04:30:31.140Z,77.62
2022-09-02T04:33:35.134Z,77.11
2022-09-02T04:36:38.215Z,78.14
2022-09-02T04:39:41.496Z,78.69
2022-09-02T04:42:46.647Z,77.72
2022-09-02T04:45:49.543Z,78.89
2022-09-02T04:48:52.945Z,79.36
2022-09-02T04:51:55.880Z,78.64
2022-09-02T04:54:59.219Z,80.17
2022-09-02T04:58:02.198Z,78.80
2022-09-02T05:01:10.927Z,79.21
2022-09-02T05:04:14.012Z,79.01
2022-09-02T05:07:18.414Z,79.53
2022-09-02T05:10:21.819Z,79.04
2022-09-02T05:13:26.197Z,78.28
2022-09-02T05:16:32.879Z,77.78
2022-09-02T05:19:36.871Z,78.51
2022-09-02T05:22:41.185Z,77.86
2022-09-02T05:25:44.540Z,77.63
2022-09-02T05:28:47.392Z,77.78
2022-09-02T05:31:50.559Z,78.59
2022-09-02T05:34:54.227Z,77.60
2022-09-02T05:38:00.927Z,78.87
2022-09-02T05:41:14.677Z,78.57
2022-09-02T05:44:17.707Z,78.35
2022-09-02T05:47:20.747Z,78.84
2022-09-02T05:50:31.796Z,78.83
2022-09-02T05:53:38.837Z,78.12
2022-09-02T05:56:45.324Z,79.02
2022-09-02T05:59:50.139Z,79.53
2022-09-02T06:02:53.410Z,80.00
2022-09-02T06:05:59.766Z,79.77
2022-09-02T06:09:08.623Z,79.31
2022-09-02T06:12:14.850Z,80.43
2022-09-02T06:15:18.571Z,80.10
2022-09-02T06:18:22.273Z,79.96
2022-09-02T06:21:26.362Z,79.98
2022-09-02T06:24:32.936Z,79.60
2022-09-02T06:27:38.747Z,80.23
2022-09-02T06:30:44.421Z,80.46
2022-09-02T06:33:48.487Z,82.39
2022-09-02T06:36:51.831Z,81.92
2022-09-02T06:39:56.360Z,81.93
2022-09-02T06:43:00.638Z,83.20
2022-09-02T06:46:04.091Z,81.25
2022-09-02T06:49:09.634Z,80.82
2022-09-02T06:52:13.824Z,82.28
2022-09-02T06:55:18.218Z,81.52
2022-09-02T06:58:21.154Z,82.12
2022-09-02T07:01:27.011Z,82.63
2022-09-02T07:04:48.488Z,83.25
2022-09-02T07:07:55.485Z,84.34
2022-09-02T07:10:58.263Z,82.93
2022-09-02T07:14:01.901Z,83.17
2022-09-02T07:17:05.156Z,81.93
2022-09-02T07:20:09.603Z,82.91
2022-09-02T07:23:12.524Z,82.99
2022-09-02T07:26:17.607Z,82.98
2022-09-02T07:29:20.726Z,82.51
2022-09-02T07:32:23.887Z,82.18
2022-09-02T07:35:27.503Z,82.80
2022-09-02T07:38:32.963Z,84.25
2022-09-02T07:41:37.455Z,83.78
2022-09-02T07:44:41.361Z,82.31
2022-09-02T07:47:44.882Z,81.94
2022-09-02T07:50:49.596Z,82.20
2022-09-02T07:53:53.333Z,82.32
2022-09-02T07:56:56.793Z,81.74
2022-09-02T07:59:59.872Z,81.79
2022-09-02T08:03:03.554Z,82.68
2022-09-02T08:06:08.560Z,82.10
2022-09-02T08:09:12.260Z,85.10
2022-09-02T08:12:20.217Z,83.80
2022-09-02T08:15:28.756Z,83.91
2022-09-02T08:18:33.103Z,82.49
2022-09-02T08:21:36.725Z,81.02
2022-09-02T08:24:39.687Z,83.26
2022-09-02T08:27:42.660Z,82.53
2022-09-02T08:30:46.457Z,83.53
2022-09-02T08:33:49.305Z,81.69
2022-09-02T08:36:59.561Z,82.16
2022-09-02T08:40:05.019Z,83.41
2022-09-02T08:43:40.175Z,83.39
2022-09-02T08:46:43.001Z,83.09
2022-09-02T08:49:51.339Z,82.05
2022-09-02T08:53:03.143Z,81.48
2022-09-02T08:56:11.321Z,82.95
2022-09-02T08:59:15.155Z,83.03
2022-09-02T09:02:30.310Z,83.47
2022-09-02T09:05:52.566Z,82.44
2022-09-02T09:09:27.732Z,83.30
2022-09-02T09:12:51.862Z,82.32
2022-09-02T09:16:14.638Z,82.23
2022-09-02T09:19:44.632Z,81.87
2022-09-02T09:22:51.050Z,82.42
2022-09-02T09:25:57.329Z,83.16
2022-09-02T09:29:04.886Z,81.27
2022-09-02T09:32:23.184Z,81.98
2022-09-02T09:35:29.100Z,81.54
2022-09-02T09:38:35.408Z,81.12
2022-09-02T09:41:38.420Z,82.14
2022-09-02T09:44:48.200Z,83.00
2022-09-02T09:48:23.744Z,84.30
2022-09-02T09:51:26.542Z,84.27
2022-09-02T09:54:29.661Z,83.81
2022-09-02T09:57:35.724Z,82.76
2022-09-02T10:00:41.484Z,83.05
2022-09-02T10:03:50.415Z,84.22
2022-09-02T10:06:53.099Z,82.88
2022-09-02T10:10:12.209Z,84.66
2022-09-02T10:13:25.675Z,84.59
2022-09-02T10:16:43.990Z,84.31
2022-09-02T10:20:12.035Z,82.99
2022-09-02T10:23:44.939Z,83.12
2022-09-02T10:26:58.794Z,82.55
2022-09-02T10:30:07.431Z,82.23
2022-09-02T10:33:30.221Z,82.62
2022-09-02T10:36:36.409Z,82.33
2022-09-02T10:39:57.995Z,84.27
2022-09-02T10:43:07.078Z,81.98
2022-09-02T10:46:13.165Z,82.28
2022-09-02T10:49:41.162Z,84.86
2022-09-02T10:53:19.538Z,85.73
2022-09-02T10:56:27.019Z,84.48
2022-09-02T10:59:54.690Z,83.86
2022-09-02T11:03:16.215Z,84.02
2022-09-02T11:06:31.781Z,84.68
2022-09-02T11:09:46.034Z,82.62
2022-09-02T11:13:06.618Z,83.25
2022-09-02T11:16:21.671Z,83.19
2022-09-02T11:19:38.668Z,82.94
2022-09-02T11:23:07.043Z,83.82
2022-09-02T11:26:31.538Z,82.82
2022-09-02T11:30:06.051Z,84.72
2022-09-02T11:33:34.255Z,85.25
2022-09-02T11:36:40.463Z,84.66
2022-09-02T11:40:02.326Z,83.99
2022-09-02T11:43:14.395Z,83.43
2022-09-02T11:46:42.116Z,83.68
2022-09-02T11:50:23.425Z,84.08
2022-09-02T11:53:40.696Z,83.33
2022-09-02T11:56:47.307Z,83.00
2022-09-02T11:59:52.800Z,83.30
2022-09-02T12:03:16.829Z,83.02
2022-09-02T12:06:28.211Z,82.37
2022-09-02T12:09:48.087Z,82.54
2022-09-02T12:12:58.485Z,82.19
2022-09-02T12:16:13.234Z,82.27
2022-09-02T12:19:27.870Z,82.93
2022-09-02T12:22:38.858Z,83.69
2022-09-02T12:25:48.450Z,82.79
2022-09-02T12:28:52.901Z,81.50
2022-09-02T12:31:56.621Z,83.22
2022-09-02T12:35:10.703Z,82.69
2022-09-02T12:38:13.533Z,82.29
2022-09-02T12:41:23.519Z,80.87
2022-09-02T12:44:33.841Z,81.24
2022-09-02T12:47:57.840Z,79.17
2022-09-02T12:51:00.919Z,80.52
2022-09-02T12:54:06.015Z,79.77
2022-09-02T12:57:10.669Z,80.77
2022-09-02T13:00:17.280Z,78.40
2022-09-02T13:03:43.088Z,79.01
2022-09-02T13:07:20.707Z,78.29
2022-09-02T13:10:44.918Z,77.92
2022-09-02T13:14:08.667Z,77.03
2022-09-02T13:17:36.362Z,77.90
2022-09-02T13:20:39.499Z,76.70
2022-09-02T13:23:42.885Z,77.06
2022-09-02T13:27:11.473Z,77.09
2022-09-02T13:30:20.114Z,77.15
2022-09-02T13:33:22.950Z,76.53
2022-09-02T13:36:50.729Z,76.25
2022-09-02T13:39:53.451Z,76.16
2022-09-02T13:42:59.293Z,75.86
2022-09-02T13:46:03.122Z,75.53
2022-09-02T13:49:06.139Z,74.70
2022-09-02T13:52:16.895Z,74.51
2022-09-02T13:55:20.885Z,75.19
2022-09-02T13:58:29.697Z,74.90
2022-09-02T14:01:42.168Z,73.75
2022-09-02T14:04:45.409Z,73.70
2022-09-02T14:07:54.710Z,72.16
2022-09-02T14:10:58.514Z,71.91
2022-09-02T14:14:02.782Z,72.21
2022-09-02T14:17:26.439Z,72.47
2022-09-02T14:20:29.191Z,73.79
2022-09-02T14:23:36.289Z,72.14
2022-09-02T14:26:43.337Z,72.94
2022-09-02T14:29:49.772Z,73.89
2022-09-02T14:33:30.947Z,71.51
2022-09-02T14:36:37.124Z,72.98
2022-09-02T14:39:52.730Z,73.31
2022-09-02T14:42:57.985Z,74.72
2022-09-02T14:46:08.435Z,74.53
2022-09-02T14:49:24.875Z,75.29
2022-09-02T14:52:39.372Z,75.89
2022-09-02T14:55:47.546Z,75.00
2022-09-02T14:58:50.311Z,75.19
2022-09-02T15:01:57.003Z,75.49
2022-09-02T15:05:02.204Z,74.92
2022-09-02T15:08:05.197Z,75.22
2022-09-02T15:11:08.244Z,74.56
2022-09-02T15:14:12.791Z,74.17
2022-09-02T15:17:16.321Z,74.56
2022-09-02T15:20:21.723Z,74.72
2022-09-02T15:23:24.523Z,74.17
2022-09-02T15:26:30.075Z,73.49
2022-09-02T15:29:32.731Z,73.34
2022-09-02T15:32:37.225Z,73.57
2022-09-02T15:35:39.842Z,74.11
2022-09-02T15:38:42.798Z,73.72
2022-09-02T15:41:45.972Z,74.06
2022-09-02T15:44:48.903Z,75.19
2022-09-02T15:47:51.532Z,75.06
2022-09-02T15:50:54.603Z,75.06
2022-09-02T15:54:06.366Z,76.38
2022-09-02T15:57:11.632Z,76.03
2022-09-02T16:00:16.011Z,75.76
2022-09-02T16:03:19.431Z,76.21
2022-09-02T16:06:22.264Z,76.65
2022-09-02T16:09:25.322Z,76.42
2022-09-02T16:12:28.222Z,76.24
2022-09-02T16:15:31.471Z,76.82
2022-09-02T16:18:38.665Z,77.51
2022-09-02T16:21:41.765Z,77.31
2022-09-02T16:24:44.404Z,76.97
2022-09-02T16:27:53.459Z,77.07
2022-09-02T16:30:56.225Z,78.11
2022-09-02T16:34:05.282Z,77.58
2022-09-02T16:37:08.060Z,77.82
2022-09-02T16:40:11.308Z,78.44
2022-09-02T16:43:14.435Z,79.51
2022-09-02T16:46:17.633Z,80.11
2022-09-02T16:49:22.102Z,79.76
2022-09-02T16:52:25.098Z,80.73
2022-09-02T16:55:27.713Z,80.94
2022-09-02T16:58:31.066Z,80.59
2022-09-02T17:01:34.869Z,80.65
2022-09-02T17:04:37.876Z,82.62
2022-09-02T17:07:40.490Z,82.10
2022-09-02T17:10:44.182Z,81.69
2022-09-02T17:13:52.488Z,81.63
2022-09-02T17:16:55.588Z,82.94
2022-09-02T17:19:59.007Z,82.50
2022-09-02T17:23:01.924Z,82.83
2022-09-02T17:26:04.623Z,82.19
2022-09-02T17:29:17.365Z,82.27
2022-09-02T17:32:34.277Z,83.24
2022-09-02T17:35:37.239Z,83.17
2022-09-02T17:38:40.318Z,83.30
2022-09-02T17:41:57.379Z,83.39
2022-09-02T17:45:00.527Z,82.01
2022-09-02T17:48:19.454Z,81.84
2022-09-02T17:51:26.488Z,81.34
2022-09-02T17:54:29.507Z,81.46
2022-09-02T17:58:09.668Z,82.60
2022-09-02T18:01:20.892Z,82.74
2022-09-02T18:04:48.317Z,83.03
2022-09-02T18:08:16.307Z,83.26
2022-09-02T18:11:22.613Z,83.00
2022-09-02T18:14:38.323Z,82.37
2022-09-02T18:17:53.026Z,82.15
2022-09-02T18:21:08.525Z,81.31
2022-09-02T18:24:25.468Z,81.38
2022-09-02T18:27:46.426Z,81.98
2022-09-02T18:31:12.712Z,81.81
2022-09-02T18:34:40.243Z,82.29
2022-09-02T18:37:52.551Z,81.81
2022-09-02T18:40:59.775Z,81.96
2022-09-02T18:44:36.198Z,82.12
2022-09-02T18:47:44.836Z,82.91
2022-09-02T18:50:56.956Z,82.72
2022-09-02T18:54:06.686Z,83.54
2022-09-02T18:57:10.047Z,83.45
2022-09-02T19:00:13.933Z,82.87
2022-09-02T19:03:17.644Z,83.33
2022-09-02T19:06:22.928Z,83.70
2022-09-02T19:09:26.784Z,84.16
2022-09-02T19:12:33.858Z,84.15
2022-09-02T19:15:38.747Z,84.00
2022-09-02T19:18:41.450Z,83.77
2022-09-02T19:21:55.119Z,85.23
2022-09-02T19:25:05.166Z,85.13
2022-09-02T19:28:12.040Z,85.05
2022-09-02T19:31:20.826Z,84.96
2022-09-02T19:34:30.954Z,85.94
2022-09-02T19:37:33.704Z,84.78
2022-09-02T19:40:36.856Z,86.12
2022-09-02T19:43:40.917Z,87.02
2022-09-02T19:47:30.673Z,85.54
2022-09-02T19:50:07.606Z,86.42
2022-09-02T19:53:16.133Z,85.91
2022-09-02T19:56:20.725Z,86.19
2022-09-02T19:59:23.709Z,85.51
2022-09-02T20:02:26.609Z,85.20
2022-09-02T20:05:29.970Z,84.95
2022-09-02T20:08:32.716Z,85.21
2022-09-02T20:11:37.065Z,85.15
2022-09-02T20:14:41.300Z,85.38
2022-09-02T20:17:44.294Z,85.73
2022-09-02T20:20:49.799Z,85.37
2022-09-02T20:23:54.014Z,85.46
2022-09-02T20:27:01.651Z,85.43
2022-09-02T20:30:09.354Z,85.79
2022-09-02T20:33:22.007Z,85.74
2022-09-02T20:36:52.333Z,86.06
2022-09-02T20:40:27.034Z,86.37
2022-09-02T20:44:06.861Z,86.04
2022-09-02T20:47:36.672Z,85.34
2022-09-02T20:50:48.770Z,85.46
2022-09-02T20:54:01.540Z,85.94
2022-09-02T20:57:31.823Z,86.32
2022-09-02T21:00:34.689Z,86.23
2022-09-02T21:04:08.838Z,86.03
2022-09-02T21:07:20.843Z,86.20
2022-09-02T21:10:36.383Z,86.60
2022-09-02T21:13:43.387Z,86.34
2022-09-02T21:17:04.900Z,86.69
2022-09-02T21:20:16.760Z,86.67
2022-09-02T21:23:38.726Z,86.66
2022-09-02T21:27:02.788Z,86.29
2022-09-02T21:30:08.269Z,86.43
2022-09-02T21:33:14.840Z,86.42
2022-09-02T21:36:23.277Z,86.38
2022-09-02T21:39:31.122Z,86.08
2022-09-02T21:42:55.974Z,86.49
2022-09-02T21:46:14.275Z,86.37
2022-09-02T21:49:19.902Z,86.58
2022-09-02T21:52:37.320Z,86.94
2022-09-02T21:55:43.750Z,86.46
2022-09-02T21:59:18.575Z,86.30
2022-09-02T22:02:34.304Z,86.08
2022-09-02T22:05:55.481Z,85.96
2022-09-02T22:09:10.943Z,85.47
2022-09-02T22:12:14.806Z,85.73
2022-09-02T22:15:59.671Z,86.14
2022-09-02T22:19:06.365Z,86.12
2022-09-02T22:22:17.100Z,86.53
2022-09-02T22:25:21.847Z,86.72
2022-09-02T22:28:36.839Z,86.22
2022-09-02T22:31:45.196Z,85.94
2022-09-02T22:35:14.683Z,86.17
2022-09-02T22:38:21.972Z,86.47
2022-09-02T22:41:38.623Z,86.22
2022-09-02T22:45:06.213Z,86.04
2022-09-02T22:48:35.425Z,86.30
2022-09-02T22:52:07.670Z,86.28
2022-09-02T22:55:10.696Z,86.43
2022-09-02T22:58:25.747Z,86.43
2022-09-02T23:01:41.975Z,86.39
2022-09-02T23:05:08.757Z,86.31
2022-09-02T23:08:13.859Z,86.74
2022-09-02T23:11:32.928Z,86.84
2022-09-02T23:14:51.813Z,86.55
2022-09-02T23:18:16.120Z,86.66
2022-09-02T23:21:40.832Z,86.72
2022-09-02T23:25:11.126Z,86.82
2022-09-02T23:28:19.283Z,86.80
2022-09-02T23:31:42.394Z,86.92
2022-09-02T23:34:54.150Z,86.91
2022-09-02T23:38:00.369Z,87.02
2022-09-02T23:41:11.987Z,87.22
2022-09-02T23:44:16.574Z,87.01
2022-09-02T23:47:40.522Z,86.88
2022-09-02T23:50:56.301Z,86.68
2022-09-02T23:54:10.746Z,86.69
2022-09-02T23:57:22.568Z,87.17
